Time;durP1;ratioP1;P1;durP2;ratioP2;P2;SDS_P1;SDS_P2;PMS_P1;PMS_P2;Temp;Humidity;BMP_temperature;BMP_pressure;BME280_temperature;BME280_humidity;BME280_pressure;Samples;Min_cycle;Max_cycle;Signal;HPM_P1;HPM_P2
2024/01/05 00:01:44;;;;;;;4.67;2.90;;;;;;;18.24;56.65;95552.50;10395733;28;20038;-29
2024/01/05 00:06:44;;;;;;;6.57;3.17;;;;;;;18.24;56.55;95555.84;10399807;28;20042;-29
2024/01/05 00:11:45;;;;;;;6.67;3.17;;;;;;;18.27;56.98;95549.91;10393061;28;20091;-28
2024/01/05 00:16:47;;;;;;;4.35;2.90;;;;;;;18.23;56.83;95548.28;10397063;28;20065;-29
2024/01/05 00:21:47;;;;;;;5.30;2.95;;;;;;;18.28;57.20;95556.63;10393636;28;20178;-29
2024/01/05 00:26:48;;;;;;;4.20;2.77;;;;;;;18.30;56.90;95562.53;10402502;28;20033;-29
2024/01/05 00:31:48;;;;;;;3.70;2.33;;;;;;;18.25;57.40;95556.69;10398416;28;20116;-29
2024/01/05 00:36:48;;;;;;;5.17;2.90;;;;;;;18.27;57.31;95549.91;10393462;28;20592;-29
2024/01/05 00:41:49;;;;;;;5.13;2.50;;;;;;;18.27;57.32;95552.44;10401105;28;20089;-31
2024/01/05 00:46:49;;;;;;;3.93;2.30;;;;;;;18.23;57.20;95551.66;10400225;28;20037;-28
2024/01/05 00:51:49;;;;;;;4.57;3.27;;;;;;;18.27;57.54;95553.28;10396028;28;20045;-29
2024/01/05 00:56:50;;;;;;;3.97;2.40;;;;;;;18.29;57.07;95538.03;10394153;28;20117;-30
2024/01/05 01:01:51;;;;;;;5.50;2.53;;;;;;;18.27;57.18;95535.56;10392821;28;20838;-29
2024/01/05 01:06:51;;;;;;;4.45;2.38;;;;;;;18.28;57.32;95539.75;10398836;28;20061;-29
2024/01/05 01:11:51;;;;;;;7.50;2.63;;;;;;;18.24;57.23;95529.69;10391477;28;20215;-28
2024/01/05 01:16:52;;;;;;;5.60;2.60;;;;;;;18.27;57.15;95527.94;10395264;28;20587;-29
2024/01/05 01:21:52;;;;;;;6.53;2.60;;;;;;;18.27;57.21;95516.97;10391048;28;20041;-29
2024/01/05 01:26:53;;;;;;;4.15;2.47;;;;;;;18.27;57.16;95519.50;10392216;28;20030;-28
2024/01/05 01:31:53;;;;;;;4.53;2.53;;;;;;;18.26;57.14;95523.72;10390386;28;20499;-28
2024/01/05 01:36:53;;;;;;;5.30;2.93;;;;;;;18.24;57.11;95522.91;10400467;28;20065;-31
2024/01/05 01:41:54;;;;;;;3.90;2.13;;;;;;;18.24;57.23;95520.38;10397504;28;20037;-29
2024/01/05 01:46:56;;;;;;;7.13;2.08;;;;;;;18.20;57.10;95507.81;10396230;28;20104;-28
2024/01/05 01:51:56;;;;;;;4.65;2.63;;;;;;;18.25;57.18;95521.22;10392406;28;20040;-29
2024/01/05 01:56:57;;;;;;;3.08;2.08;;;;;;;18.22;57.22;95513.66;10398027;28;20559;-28
2024/01/05 02:01:58;;;;;;;6.18;2.28;;;;;;;18.25;56.95;95506.03;10395194;28;20022;-29
2024/01/05 02:06:58;;;;;;;3.60;2.05;;;;;;;18.23;56.99;95492.53;10395068;28;20034;-29
2024/01/05 02:11:59;;;;;;;6.67;2.40;;;;;;;18.24;57.04;95481.56;10388401;28;20048;-30
2024/01/05 02:16:59;;;;;;;6.07;2.70;;;;;;;18.25;56.81;95488.31;10399031;28;20103;-29
2024/01/05 02:22:01;;;;;;;4.28;2.30;;;;;;;18.22;57.08;95495.94;10394755;28;20037;-29
2024/01/05 02:27:21;;;;;;;3.63;2.17;;;;;;;18.24;56.92;95484.09;10390700;28;20116;-29
2024/01/05 02:32:22;;;;;;;5.28;2.08;;;;;;;18.23;56.96;95474.81;10404575;28;20029;-29
2024/01/05 02:37:22;;;;;;;3.07;2.00;;;;;;;18.25;56.91;95465.50;10412943;28;20043;-29
2024/01/05 02:42:22;;;;;;;5.38;2.22;;;;;;;18.23;56.89;95463.00;10391625;28;20277;-29
2024/01/05 02:47:23;;;;;;;3.80;2.23;;;;;;;18.23;56.97;95452.00;10389983;28;20042;-29
2024/01/05 02:52:23;;;;;;;8.80;2.80;;;;;;;18.25;56.72;95460.44;10392483;28;20048;-29
2024/01/05 02:57:24;;;;;;;6.33;2.37;;;;;;;18.23;56.75;95462.13;10391525;28;20095;-29
2024/01/05 03:02:24;;;;;;;5.03;1.90;;;;;;;18.23;56.91;95462.13;10391299;28;20037;-29
2024/01/05 03:07:25;;;;;;;4.13;2.10;;;;;;;18.21;57.15;95458.81;10388063;28;20038;-29
2024/01/05 03:12:25;;;;;;;3.08;1.88;;;;;;;18.24;57.05;95446.91;10387356;28;20306;-29
2024/01/05 03:17:25;;;;;;;3.77;1.87;;;;;;;18.21;56.88;95436.84;10390960;28;20400;-29
2024/01/05 03:22:26;;;;;;;4.70;2.27;;;;;;;18.19;56.77;95415.78;10389135;28;20519;-29
2024/01/05 03:27:26;;;;;;;5.45;2.47;;;;;;;18.23;56.74;95426.69;10391102;28;20033;-28
2024/01/05 03:32:27;;;;;;;3.43;2.00;;;;;;;18.22;56.77;95425.84;10389191;28;20037;-29
2024/01/05 03:37:27;;;;;;;4.57;2.47;;;;;;;18.25;56.48;95435.09;10393887;28;20292;-29
2024/01/05 03:42:27;;;;;;;3.23;1.97;;;;;;;18.22;56.81;95438.53;10393445;28;20277;-28
2024/01/05 03:47:28;;;;;;;2.90;1.60;;;;;;;18.23;56.54;95424.13;10390775;28;20042;-29
2024/01/05 03:52:28;;;;;;;3.90;1.57;;;;;;;18.21;56.66;95424.19;10396500;28;20038;-29
2024/01/05 03:57:28;;;;;;;4.17;1.70;;;;;;;18.21;56.66;95416.59;10392826;28;20047;-29
2024/01/05 04:02:29;;;;;;;3.37;1.60;;;;;;;18.22;56.52;95404.75;10393717;28;20033;-29
2024/01/05 04:07:29;;;;;;;3.57;1.60;;;;;;;18.23;56.85;95401.34;10398578;28;20296;-29
2024/01/05 04:12:30;;;;;;;4.07;1.47;;;;;;;18.20;56.76;95396.34;10386179;28;20060;-29
2024/01/05 04:17:30;;;;;;;3.85;2.00;;;;;;;18.22;56.77;95389.53;10392077;28;20086;-29
2024/01/05 04:22:31;;;;;;;2.20;1.37;;;;;;;18.21;56.82;95388.72;10386008;28;20030;-29
2024/01/05 04:27:31;;;;;;;2.22;1.20;;;;;;;18.21;56.84;95382.81;10392573;28;20171;-29
2024/01/05 04:32:32;;;;;;;6.23;2.30;;;;;;;18.23;56.71;95392.06;10397850;28;20041;-29
2024/01/05 04:37:32;;;;;;;4.33;1.33;;;;;;;18.21;56.68;95398.00;10416483;28;20037;-29
2024/01/05 04:42:33;;;;;;;4.70;1.60;;;;;;;18.23;56.61;95396.28;10397728;28;20120;-30
2024/01/05 04:47:34;;;;;;;2.78;1.50;;;;;;;18.24;56.71;95392.91;10393657;28;20037;-29
2024/01/05 04:52:35;;;;;;;3.85;1.50;;;;;;;18.23;56.66;95383.63;10403538;28;20195;-29
2024/01/05 04:57:35;;;;;;;4.63;1.75;;;;;;;18.23;56.69;95381.09;10400597;28;20048;-29
2024/01/05 05:02:38;;;;;;;4.60;1.70;;;;;;;18.24;56.82;95382.78;10399858;28;20508;-28
2024/01/05 05:07:38;;;;;;;2.92;1.60;;;;;;;18.23;56.52;95381.94;10389405;28;20152;-29
2024/01/05 05:12:39;;;;;;;6.13;1.27;;;;;;;18.26;56.78;95373.44;10396595;28;20034;-29
2024/01/05 05:17:39;;;;;;;3.47;1.80;;;;;;;18.24;56.95;95373.47;10397239;28;20033;-29
2024/01/05 05:22:39;;;;;;;2.47;1.20;;;;;;;18.23;56.84;95371.78;10391332;28;20771;-28
2024/01/05 05:27:40;;;;;;;3.07;1.50;;;;;;;18.23;57.05;95358.28;10395816;28;20030;-29
2024/01/05 05:32:40;;;;;;;3.23;1.43;;;;;;;18.28;56.55;95364.94;10395174;28;20041;-28
2024/01/05 05:37:40;;;;;;;4.87;1.83;;;;;;;18.26;56.56;95365.84;10397612;28;20041;-29
2024/01/05 05:42:41;;;;;;;3.13;1.40;;;;;;;18.24;56.41;95373.47;10398707;28;20116;-29
2024/01/05 05:47:41;;;;;;;4.83;1.43;;;;;;;18.30;56.50;95382.66;10393577;28;20520;-29
2024/01/05 05:52:43;;;;;;;2.07;0.93;;;;;;;18.26;55.85;95398.78;10393590;28;20292;-28
2024/01/05 05:57:43;;;;;;;3.30;1.70;;;;;;;18.31;55.60;95390.25;10395968;28;20135;-29
2024/01/05 06:02:44;;;;;;;3.37;1.53;;;;;;;18.31;55.69;95385.16;10399613;28;20143;-29
2024/01/05 06:07:44;;;;;;;2.23;1.30;;;;;;;18.29;55.91;95371.72;10399796;28;20041;-30
2024/01/05 06:12:45;;;;;;;4.03;1.00;;;;;;;18.27;55.75;95386.09;10390739;28;20563;-29
2024/01/05 06:17:45;;;;;;;3.10;1.30;;;;;;;18.29;55.55;95386.03;10397018;28;20044;-29
2024/01/05 06:22:45;;;;;;;4.80;1.57;;;;;;;18.27;55.59;95395.38;10391908;28;20555;-31
2024/01/05 06:27:46;;;;;;;2.17;1.00;;;;;;;18.28;55.38;95386.91;10395489;28;20033;-28
2024/01/05 06:32:46;;;;;;;2.80;1.30;;;;;;;18.24;55.48;95383.59;10392419;28;20061;-29
2024/01/05 06:37:46;;;;;;;1.47;1.10;;;;;;;18.25;55.43;95376.84;10396057;28;20034;-29
2024/01/05 06:42:47;;;;;;;2.13;1.40;;;;;;;18.22;55.67;95377.72;10395450;28;20025;-29
2024/01/05 06:47:47;;;;;;;4.10;1.30;;;;;;;18.21;55.88;95375.22;10389664;28;20034;-29
2024/01/05 06:52:47;;;;;;;1.77;1.00;;;;;;;18.21;54.68;95388.72;10399008;28;20037;-28
2024/01/05 06:57:48;;;;;;;2.85;1.13;;;;;;;18.25;53.32;95380.19;10397702;28;20121;-30
2024/01/05 07:02:48;;;;;;;4.17;1.43;;;;;;;18.20;54.28;95394.66;10396121;28;20444;-29
2024/01/05 07:07:48;;;;;;;1.37;0.87;;;;;;;18.26;52.45;95391.16;10393897;28;20040;-30
2024/01/05 07:12:49;;;;;;;2.43;1.00;;;;;;;18.28;52.59;95369.16;10396314;28;20690;-29
2024/01/05 07:17:49;;;;;;;4.00;1.10;;;;;;;18.45;50.78;95367.16;10393722;28;20045;-29
2024/01/05 07:22:52;;;;;;;2.07;1.00;;;;;;;18.36;51.36;95372.41;10395056;28;20319;-29
2024/01/05 07:27:52;;;;;;;4.88;1.05;;;;;;;18.35;52.25;95363.16;10390719;28;20044;-29
2024/01/05 07:32:52;;;;;;;1.90;1.40;;;;;;;18.33;53.15;95362.34;10390167;28;20041;-29
2024/01/05 07:37:53;;;;;;;3.00;1.33;;;;;;;18.29;53.52;95371.72;10393667;28;20052;-30
2024/01/05 07:42:54;;;;;;;3.25;1.52;;;;;;;18.29;53.47;95370.81;10394940;28;20120;-29
2024/01/05 07:47:57;;;;;;;1.67;1.08;;;;;;;18.29;53.15;95378.44;10389378;28;20589;-29
2024/01/05 07:52:58;;;;;;;1.77;0.90;;;;;;;18.29;53.31;95378.44;10399804;28;20056;-29
2024/01/05 07:57:58;;;;;;;3.17;1.20;;;;;;;18.31;53.41;95379.25;10394601;28;20040;-29
2024/01/05 08:03:00;;;;;;;4.37;1.47;;;;;;;18.31;53.63;95369.13;10401999;28;20030;-29
2024/01/05 08:08:01;;;;;;;2.35;1.13;;;;;;;18.29;53.72;95375.91;10397700;28;20045;-29
2024/01/05 08:13:01;;;;;;;2.30;1.35;;;;;;;18.30;53.50;95368.31;10407166;28;20413;-29
2024/01/05 08:18:03;;;;;;;2.17;0.90;;;;;;;18.29;53.56;95379.31;10396385;28;20033;-29
2024/01/05 08:23:03;;;;;;;1.35;0.80;;;;;;;18.32;53.42;95375.88;10407795;28;20293;-29
2024/01/05 08:28:04;;;;;;;2.47;1.00;;;;;;;18.31;53.64;95371.66;10384621;28;20037;-30
2024/01/05 08:33:05;;;;;;;3.45;1.20;;;;;;;18.30;53.56;95362.41;10403907;28;20045;-29
2024/01/05 08:38:05;;;;;;;3.33;1.35;;;;;;;18.34;53.25;95369.09;10390734;28;20045;-29
2024/01/05 08:43:05;;;;;;;2.60;1.00;;;;;;;18.31;54.19;95369.13;10397981;28;20040;-29
2024/01/05 08:48:06;;;;;;;1.45;0.80;;;;;;;18.33;54.94;95367.41;10387319;28;20379;-28
2024/01/05 08:53:08;;;;;;;2.73;1.13;;;;;;;18.32;55.32;95373.34;10394307;28;20100;-29
2024/01/05 08:58:10;;;;;;;2.83;1.17;;;;;;;18.33;55.73;95372.47;10378969;28;20295;-29
2024/01/05 09:03:10;;;;;;;1.73;0.93;;;;;;;18.31;55.67;95379.25;10392967;28;20030;-29
2024/01/05 09:08:11;;;;;;;3.80;1.27;;;;;;;18.28;55.88;95385.22;10385392;28;20037;-29
2024/01/05 09:13:11;;;;;;;3.53;1.20;;;;;;;18.25;55.90;95374.31;10386729;28;20037;-29
2024/01/05 09:18:12;;;;;;;4.73;1.00;;;;;;;18.27;56.22;95387.78;10394711;28;20485;-29
2024/01/05 09:23:13;;;;;;;2.50;1.10;;;;;;;18.28;55.97;95400.41;10381942;28;20034;-31
2024/01/05 09:28:13;;;;;;;1.65;0.90;;;;;;;18.24;56.13;95397.97;10391525;28;20041;-29
2024/01/05 09:33:14;;;;;;;1.93;0.97;;;;;;;18.26;56.19;95411.44;10398571;28;20567;-29
2024/01/05 09:38:14;;;;;;;4.78;2.35;;;;;;;18.24;56.45;95406.38;10402187;28;20303;-29
2024/01/05 09:43:16;;;;;;;2.77;1.60;;;;;;;18.26;55.88;95427.44;10378762;28;20033;-29
2024/01/05 09:48:22;;;;;;;2.58;1.02;;;;;;;18.28;55.13;95422.38;10379978;28;20048;-28
2024/01/05 09:53:23;;;;;;;4.25;1.27;;;;;;;18.28;55.99;95407.16;10396481;28;20052;-29
2024/01/05 09:58:25;;;;;;;7.30;1.60;;;;;;;18.46;53.91;95404.28;10381015;28;20632;-29
2024/01/05 10:03:26;;;;;;;14.13;1.90;;;;;;;18.55;53.69;95406.63;10367388;28;20124;-29
2024/01/05 10:08:27;;;;;;;6.80;1.95;;;;;;;18.58;53.09;95409.94;10388424;28;20525;-29
2024/01/05 10:13:27;;;;;;;7.70;1.70;;;;;;;18.70;53.24;95401.22;10394142;28;20037;-28
2024/01/05 10:18:28;;;;;;;9.15;2.47;;;;;;;18.73;53.08;95403.69;10383049;28;20038;-29
2024/01/05 10:23:28;;;;;;;8.68;1.75;;;;;;;18.69;52.53;95417.31;10390066;28;20510;-29
2024/01/05 10:28:33;;;;;;;3.17;1.80;;;;;;;18.72;52.59;95407.94;10386559;28;20145;-30
2024/01/05 10:33:33;;;;;;;7.82;1.95;;;;;;;18.71;55.02;95415.56;10380232;28;20048;-30
2024/01/05 10:38:33;;;;;;;8.20;2.37;;;;;;;18.72;52.62;95412.16;10374284;28;20042;-30
2024/01/05 10:43:35;;;;;;;5.33;2.60;;;;;;;18.70;52.82;95414.75;10376628;28;20128;-29
2024/01/05 10:48:35;;;;;;;6.72;2.08;;;;;;;18.64;52.96;95398.81;10374358;28;20029;-29
2024/01/05 10:53:36;;;;;;;6.07;2.58;;;;;;;18.69;52.79;95397.88;10381596;28;20034;-30
2024/01/05 10:58:36;;;;;;;3.50;2.53;;;;;;;18.69;52.68;95394.50;10391441;28;20041;-29
2024/01/05 11:03:40;;;;;;;4.18;2.53;;;;;;;18.67;52.59;95384.38;10380633;28;20379;-29
2024/01/05 11:08:52;;;;;;;4.32;2.00;;;;;;;18.64;53.38;95391.22;10376570;28;20112;-30
2024/01/05 11:14:19;;;;;;;10.02;3.28;;;;;;;18.71;52.91;95395.28;10380718;28;20046;-29
2024/01/05 11:19:38;;;;;;;5.32;2.65;;;;;;;18.75;52.42;95399.44;10379024;28;20060;-29
2024/01/05 11:24:39;;;;;;;7.32;2.38;;;;;;;18.78;52.78;95399.38;10390838;28;20025;-29
2024/01/05 11:29:53;;;;;;;4.45;2.63;;;;;;;18.73;52.41;95384.25;10387636;28;20033;-29
2024/01/05 11:34:54;;;;;;;5.50;2.65;;;;;;;18.80;51.94;95393.41;10369322;28;20477;-30
2024/01/05 11:39:54;;;;;;;6.63;2.10;;;;;;;18.79;52.46;95384.13;10378494;28;20048;-29
2024/01/05 11:44:56;;;;;;;4.80;2.67;;;;;;;18.74;52.63;95369.91;10384898;28;20092;-29
2024/01/05 11:49:56;;;;;;;3.65;2.30;;;;;;;18.79;52.49;95368.91;10390842;28;20791;-30
2024/01/05 11:55:12;;;;;;;5.10;2.03;;;;;;;18.78;53.14;95352.03;10391068;28;20041;-29
2024/01/05 12:00:13;;;;;;;3.13;1.77;;;;;;;18.79;53.09;95338.50;10384832;28;20486;-29
2024/01/05 12:05:16;;;;;;;5.45;2.33;;;;;;;18.80;53.25;95332.56;10384554;28;20037;-30
2024/01/05 12:10:22;;;;;;;1.65;1.38;;;;;;;18.78;53.64;95315.69;10384335;28;20123;-30
2024/01/05 12:15:24;;;;;;;3.20;1.88;;;;;;;18.82;53.57;95307.16;10387375;28;20038;-29
2024/01/05 12:20:24;;;;;;;7.65;2.05;;;;;;;18.85;53.52;95312.97;10389003;28;20048;-30
2024/01/05 12:25:25;;;;;;;4.47;3.27;;;;;;;18.81;53.48;95305.47;10384718;28;20490;-29
2024/01/05 12:30:26;;;;;;;2.80;1.65;;;;;;;18.68;53.80;95279.59;10385855;28;20037;-28
2024/01/05 12:35:26;;;;;;;4.25;1.83;;;;;;;18.80;53.70;95293.66;10386689;28;20044;-29
2024/01/05 12:40:28;;;;;;;4.07;2.30;;;;;;;18.81;53.85;95286.03;10385724;28;20041;-30
2024/01/05 12:45:28;;;;;;;4.97;1.80;;;;;;;18.83;53.61;95291.91;10385982;28;20276;-29
2024/01/05 12:50:30;;;;;;;5.67;2.17;;;;;;;18.87;53.91;95290.13;10391711;28;20042;-30
2024/01/05 12:55:32;;;;;;;3.90;2.13;;;;;;;18.87;53.22;95295.19;10394298;28;20368;-29
2024/01/05 13:00:44;;;;;;;3.88;1.45;;;;;;;18.85;53.76;95289.34;10395374;28;20037;-29
2024/01/05 13:05:46;;;;;;;4.03;1.70;;;;;;;18.85;53.75;95286.81;10394125;28;20036;-29
2024/01/05 13:10:46;;;;;;;5.85;1.52;;;;;;;18.87;54.11;95285.06;10390853;28;20065;-29
2024/01/05 13:15:47;;;;;;;2.67;1.33;;;;;;;18.87;54.34;95285.06;10391967;28;20461;-29
2024/01/05 13:20:47;;;;;;;3.17;1.47;;;;;;;18.86;54.54;95276.63;10393937;28;20405;-29
2024/01/05 13:25:47;;;;;;;4.40;1.63;;;;;;;18.87;54.77;95285.06;10390058;28;20030;-29
2024/01/05 13:30:48;;;;;;;6.68;1.60;;;;;;;18.88;54.70;95286.72;10391603;28;20096;-28
2024/01/05 13:35:48;;;;;;;4.27;1.73;;;;;;;18.88;53.59;95291.78;10402085;28;20485;-29
2024/01/05 13:40:49;;;;;;;6.95;1.80;;;;;;;18.88;53.10;95302.78;10387926;28;20052;-29
2024/01/05 13:45:51;;;;;;;4.80;1.30;;;;;;;18.86;53.04;95293.53;10390294;28;20514;-28
2024/01/05 13:50:52;;;;;;;3.13;1.15;;;;;;;18.86;53.97;95298.59;10396960;28;20116;-29
2024/01/05 13:55:52;;;;;;;2.83;1.70;;;;;;;18.84;53.45;95301.16;10406336;28;20042;-29
2024/01/05 14:00:53;;;;;;;3.80;1.20;;;;;;;18.81;54.14;95305.47;10388960;28;20485;-29
2024/01/05 14:05:53;;;;;;;2.35;1.35;;;;;;;18.81;53.17;95305.47;10392129;28;20032;-30
2024/01/05 14:10:55;;;;;;;2.83;1.20;;;;;;;18.77;52.14;95306.44;10395766;28;20041;-29
2024/01/05 14:15:55;;;;;;;2.30;1.35;;;;;;;18.77;53.74;95314.03;10397659;28;20308;-30
2024/01/05 14:20:55;;;;;;;3.93;1.30;;;;;;;18.77;52.69;95314.03;10391692;28;20514;-30
2024/01/05 14:25:57;;;;;;;3.63;1.57;;;;;;;18.76;54.33;95330.13;10387758;28;20518;-29
2024/01/05 14:30:57;;;;;;;3.03;1.20;;;;;;;18.76;52.12;95318.25;10378538;28;20037;-30
2024/01/05 14:36:01;;;;;;;6.97;1.40;;;;;;;18.73;52.88;95330.16;10393320;28;20033;-29
2024/01/05 14:41:04;;;;;;;1.55;0.85;;;;;;;18.75;52.52;95320.84;10392834;28;20025;-30
2024/01/05 14:46:07;;;;;;;3.90;1.23;;;;;;;18.73;52.90;95332.72;10387499;28;20508;-30
2024/01/05 14:51:09;;;;;;;1.88;1.23;;;;;;;18.69;54.00;95326.06;10375128;28;20520;-30
2024/01/05 14:56:16;;;;;;;2.33;0.98;;;;;;;18.69;53.16;95326.06;10392611;28;20063;-29
2024/01/05 15:01:17;;;;;;;2.08;1.17;;;;;;;18.64;53.76;95322.78;10389285;28;20073;-30
2024/01/05 15:06:23;;;;;;;1.58;1.20;;;;;;;18.65;53.00;95315.16;10393707;28;20029;-29
2024/01/05 15:11:23;;;;;;;3.72;1.20;;;;;;;18.66;53.81;95321.06;10389975;28;20094;-29
2024/01/05 15:16:24;;;;;;;2.53;1.80;;;;;;;18.67;53.81;95315.13;10380743;28;20041;-29
2024/01/05 15:21:25;;;;;;;1.70;1.08;;;;;;;18.65;53.56;95316.84;10384653;28;20030;-30
2024/01/05 15:26:26;;;;;;;3.90;1.70;;;;;;;18.60;53.70;95311.88;10369467;28;20034;-30
2024/01/05 15:31:26;;;;;;;5.45;1.50;;;;;;;18.57;54.33;95321.28;10380524;28;20038;-31
2024/01/05 15:36:26;;;;;;;2.47;1.60;;;;;;;18.59;53.08;95319.53;10381866;28;20092;-30
2024/01/05 15:41:27;;;;;;;2.78;1.65;;;;;;;18.56;54.36;95307.75;10393758;28;20345;-29
2024/01/05 15:46:27;;;;;;;3.25;1.70;;;;;;;18.59;53.49;95305.16;10388081;28;20436;-30
2024/01/05 15:51:29;;;;;;;3.10;1.70;;;;;;;18.55;52.76;95310.31;10396439;28;20056;-31
2024/01/05 15:56:30;;;;;;;3.40;2.10;;;;;;;18.57;52.35;95317.03;10383717;28;20039;-30
2024/01/05 16:01:30;;;;;;;4.85;1.60;;;;;;;18.61;53.31;95313.56;10393528;28;20048;-29
2024/01/05 16:06:31;;;;;;;6.90;1.87;;;;;;;18.61;52.69;95318.63;10394087;28;20177;-31
2024/01/05 16:11:31;;;;;;;6.75;2.42;;;;;;;18.52;54.24;95318.84;10395854;28;20048;-29
2024/01/05 16:16:32;;;;;;;4.72;2.30;;;;;;;18.51;53.91;95317.16;10393798;28;20029;-30
2024/01/05 16:21:33;;;;;;;4.47;3.08;;;;;;;18.49;54.49;95320.63;10392612;28;20034;-29
2024/01/05 16:26:33;;;;;;;7.30;3.33;;;;;;;18.45;54.40;95331.66;10389477;28;20034;-29
2024/01/05 16:31:33;;;;;;;4.03;2.90;;;;;;;18.44;54.17;95327.47;10390463;28;20042;-30
2024/01/05 16:36:34;;;;;;;8.40;3.20;;;;;;;18.46;54.42;95328.25;10408291;28;20092;-29
2024/01/05 16:41:34;;;;;;;4.77;2.50;;;;;;;18.47;54.29;95325.72;10408574;28;20087;-30
2024/01/05 16:46:34;;;;;;;4.23;2.80;;;;;;;18.49;54.24;95330.75;10408454;28;20037;-29
2024/01/05 16:51:35;;;;;;;6.43;2.97;;;;;;;18.51;54.26;95336.63;10409199;28;20303;-30
2024/01/05 16:56:39;;;;;;;8.07;3.30;;;;;;;18.59;53.09;95342.34;10404241;28;20034;-29
2024/01/05 17:01:39;;;;;;;4.38;2.47;;;;;;;18.57;53.63;95326.34;10404464;28;20032;-31
2024/01/05 17:06:42;;;;;;;8.23;3.67;;;;;;;18.54;54.46;95331.47;10408633;28;20037;-30
2024/01/05 17:11:42;;;;;;;5.13;3.47;;;;;;;18.55;53.97;95333.97;10409084;28;20302;-29
2024/01/05 17:16:45;;;;;;;6.65;3.60;;;;;;;18.52;54.78;95339.13;10407790;28;20033;-30
2024/01/05 17:21:47;;;;;;;6.93;3.75;;;;;;;18.52;54.46;95344.19;10391490;28;20037;-29
2024/01/05 17:26:48;;;;;;;7.80;3.30;;;;;;;18.51;54.86;95346.75;10392757;28;20042;-29
2024/01/05 17:31:48;;;;;;;4.55;2.97;;;;;;;18.50;54.78;95350.16;10403510;28;20091;-29
2024/01/05 17:36:48;;;;;;;5.37;2.47;;;;;;;18.43;54.50;95339.28;10392266;28;20485;-29
2024/01/05 17:41:49;;;;;;;6.23;2.70;;;;;;;18.47;54.48;95350.19;10406858;28;20279;-29
2024/01/05 17:46:49;;;;;;;5.40;2.70;;;;;;;18.44;54.33;95351.13;10407809;28;20029;-29
2024/01/05 17:51:50;;;;;;;5.17;2.20;;;;;;;18.38;54.27;95345.34;10402460;28;20034;-29
2024/01/05 17:56:51;;;;;;;6.35;2.22;;;;;;;18.46;53.72;95351.06;10406100;28;20041;-29
2024/01/05 18:01:52;;;;;;;5.93;2.20;;;;;;;18.48;53.79;95356.94;10405392;28;20037;-29
2024/01/05 18:06:54;;;;;;;2.93;1.87;;;;;;;18.43;53.80;95354.50;10395151;28;20029;-30
2024/01/05 18:11:54;;;;;;;6.88;2.13;;;;;;;18.45;54.33;95349.41;10402275;28;20033;-30
2024/01/05 18:16:54;;;;;;;5.53;2.20;;;;;;;18.45;54.30;95359.53;10400280;28;20041;-30
2024/01/05 18:21:56;;;;;;;3.07;2.00;;;;;;;18.46;54.42;95368.81;10402137;28;20776;-29
2024/01/05 18:26:56;;;;;;;8.00;2.53;;;;;;;18.44;54.29;95375.63;10396841;28;20512;-29
2024/01/05 18:31:57;;;;;;;2.70;1.83;;;;;;;18.35;53.55;95365.69;10398190;28;20091;-29
2024/01/05 18:36:57;;;;;;;2.60;1.92;;;;;;;18.45;53.98;95382.34;10400356;28;20378;-30
2024/01/05 18:41:58;;;;;;;2.70;1.63;;;;;;;18.46;54.19;95379.78;10401627;28;20033;-29
2024/01/05 18:46:58;;;;;;;3.97;2.33;;;;;;;18.43;53.80;95381.56;10394576;28;20033;-29
2024/01/05 18:51:58;;;;;;;3.40;2.20;;;;;;;18.39;54.30;95374.88;10393239;28;20172;-29
2024/01/05 18:56:59;;;;;;;3.30;1.83;;;;;;;18.42;53.81;95377.34;10400728;28;20064;-29
2024/01/05 19:02:00;;;;;;;5.72;1.70;;;;;;;18.38;54.40;95373.19;10397802;28;20136;-29
2024/01/05 19:07:00;;;;;;;9.73;2.07;;;;;;;18.50;54.39;95378.03;10401033;28;20044;-29
2024/01/05 19:12:00;;;;;;;4.80;1.90;;;;;;;18.51;53.45;95392.38;10402229;28;20693;-29
2024/01/05 19:17:01;;;;;;;7.33;2.13;;;;;;;18.52;54.48;95383.88;10400883;28;20044;-30
2024/01/05 19:22:01;;;;;;;6.53;2.33;;;;;;;18.47;55.08;95395.81;10398729;28;20408;-29
2024/01/05 19:27:03;;;;;;;5.15;2.45;;;;;;;18.50;54.54;95391.53;10402574;28;20421;-30
2024/01/05 19:32:04;;;;;;;3.45;2.03;;;;;;;18.46;54.91;95399.22;10381746;28;20056;-29
2024/01/05 19:37:04;;;;;;;7.63;3.53;;;;;;;18.40;54.72;95401.91;10397952;28;20034;-29
2024/01/05 19:42:05;;;;;;;7.37;2.10;;;;;;;18.42;55.10;95402.69;10391802;28;20049;-29
2024/01/05 19:47:07;;;;;;;4.07;2.25;;;;;;;18.39;54.79;95402.75;10397603;28;20048;-29
2024/01/05 19:52:07;;;;;;;4.10;2.10;;;;;;;18.36;54.25;95391.00;10395470;28;20050;-30
2024/01/05 19:57:08;;;;;;;5.22;1.77;;;;;;;18.39;54.91;95402.75;10402147;28;20690;-29
2024/01/05 20:02:09;;;;;;;5.63;2.17;;;;;;;18.39;55.20;95407.81;10399211;28;20029;-29
2024/01/05 20:07:09;;;;;;;3.45;2.13;;;;;;;18.40;55.07;95399.38;10396710;28;20041;-29
2024/01/05 20:12:16;;;;;;;4.30;1.97;;;;;;;18.40;54.93;95405.25;10402845;28;20492;-31
2024/01/05 20:17:16;;;;;;;;;;;;;;;18.38;55.73;95407.00;10397099;28;20069;-30
2024/01/05 20:22:16;;;;;;;4.55;2.17;;;;;;;18.35;55.93;95396.91;10401798;28;20007;-29
2024/01/05 20:27:17;;;;;;;3.17;1.70;;;;;;;18.40;55.18;95402.72;10398511;28;20500;-30
2024/01/05 20:32:17;;;;;;;3.03;2.20;;;;;;;18.39;55.26;95397.66;10397178;28;20044;-29
2024/01/05 20:37:17;;;;;;;3.90;1.80;;;;;;;18.39;55.83;95400.19;10400814;28;20292;-31
2024/01/05 20:42:19;;;;;;;3.27;1.47;;;;;;;18.37;56.26;95404.47;10399841;28;20037;-30
2024/01/05 20:47:20;;;;;;;3.17;1.88;;;;;;;18.33;56.24;95398.63;10394854;28;20041;-30
2024/01/05 20:52:20;;;;;;;4.05;1.88;;;;;;;18.37;55.97;95404.47;10400809;28;20485;-29
2024/01/05 20:57:20;;;;;;;3.27;2.07;;;;;;;18.35;56.28;95406.22;10393055;28;20476;-30
2024/01/05 21:02:21;;;;;;;3.87;2.27;;;;;;;18.37;56.03;95410.41;10401465;28;20127;-30
2024/01/05 21:07:22;;;;;;;3.17;1.73;;;;;;;18.36;56.15;95418.88;10398865;28;20053;-29
2024/01/05 21:12:22;;;;;;;3.10;1.83;;;;;;;18.22;56.44;95397.16;10397074;28;20300;-29
2024/01/05 21:17:23;;;;;;;3.57;1.60;;;;;;;18.36;56.34;95411.25;10397247;28;20643;-30
2024/01/05 21:22:24;;;;;;;3.13;2.20;;;;;;;18.38;56.08;95406.13;10399984;28;20042;-31
2024/01/05 21:27:24;;;;;;;3.53;2.08;;;;;;;18.36;56.00;95408.72;10399807;28;20030;-29
2024/01/05 21:32:25;;;;;;;4.40;1.47;;;;;;;18.37;56.34;95414.63;10395806;28;20095;-30
2024/01/05 21:37:25;;;;;;;2.72;1.92;;;;;;;18.38;56.38;95411.22;10399583;28;20154;-30
2024/01/05 21:42:26;;;;;;;5.43;1.93;;;;;;;18.36;56.47;95411.25;10397356;28;20497;-30
2024/01/05 21:47:26;;;;;;;3.23;1.97;;;;;;;18.37;56.17;95414.63;10397189;28;20049;-30
2024/01/05 21:52:27;;;;;;;3.75;1.92;;;;;;;18.36;56.30;95418.00;10392431;28;20048;-31
2024/01/05 21:57:29;;;;;;;3.57;2.00;;;;;;;18.36;56.56;95418.00;10409061;28;20040;-30
2024/01/05 22:02:30;;;;;;;2.88;1.60;;;;;;;18.35;56.42;95419.69;10392153;28;20386;-30
2024/01/05 22:07:30;;;;;;;5.33;2.33;;;;;;;18.35;56.62;95421.41;10398680;28;20041;-30
2024/01/05 22:12:30;;;;;;;3.67;1.50;;;;;;;18.33;56.75;95423.16;10390721;28;20874;-29
2024/01/05 22:17:31;;;;;;;6.13;2.03;;;;;;;18.34;56.36;95432.41;10393032;28;20041;-29
2024/01/05 22:22:31;;;;;;;2.72;1.52;;;;;;;18.32;56.95;95429.09;10389358;28;20056;-29
2024/01/05 22:27:32;;;;;;;2.37;1.53;;;;;;;18.32;56.78;95434.16;10395598;28;20033;-29
2024/01/05 22:32:32;;;;;;;4.15;2.10;;;;;;;18.32;56.84;95432.44;10400231;28;20092;-29
2024/01/05 22:37:32;;;;;;;2.57;1.80;;;;;;;18.30;57.07;95444.31;10394074;28;20092;-29
2024/01/05 22:42:33;;;;;;;2.67;1.83;;;;;;;18.35;56.75;95444.22;10392448;28;20435;-30
2024/01/05 22:47:33;;;;;;;3.07;1.70;;;;;;;18.34;56.36;95440.03;10400593;28;20493;-29
2024/01/05 22:52:33;;;;;;;2.90;1.63;;;;;;;18.34;56.24;95445.09;10392925;28;20304;-29
2024/01/05 22:57:34;;;;;;;2.53;1.90;;;;;;;18.33;56.02;95453.56;10396297;28;20299;-29
2024/01/05 23:02:34;;;;;;;3.33;1.85;;;;;;;18.34;56.07;95450.97;10395478;28;20040;-29
2024/01/05 23:07:35;;;;;;;3.63;1.83;;;;;;;18.36;56.15;95448.41;10391915;28;20034;-29
2024/01/05 23:12:35;;;;;;;2.30;1.40;;;;;;;18.31;55.89;95442.59;10391827;28;20406;-30
2024/01/05 23:17:35;;;;;;;2.47;1.83;;;;;;;18.34;55.94;95460.28;10395054;28;20479;-29